CheckWX is a tool to help pilots better visualize weather data.  It is not intended as a substitute for an official pre-flight weather briefing.

09:27:52 UTC

KCQW METAR
Cheraw Municipal / Lynch Bellinger Field Airport
Cheraw, South Carolina, USA
Current

13 mins ago

KCQW 310915Z AUTO 01007KT 10SM BKN060 BKN110 21/15 A2999 RMK AO2
Observed
May-31 @ 09:15 UTC
Wind
  • 010° at 7 KTS
Visibility
Flight Rules
VFR
Cloud Levels
  • Broken at 6,000' AGL
  • Broken at 11,000' AGL
Temperature
21°C / 70°F
Dewpoint
15°C / 59°F
Humidity
69%
Altimeter
29.99" Hg
Pressure
1015.62 hPa
Previous

33 mins ago

KCQW 310855Z AUTO 01008KT 10SM OVC060 21/16 A2998 RMK AO2
Observed
May-31 @ 08:55 UTC
Wind
  • 010° at 8 KTS
Visibility
Flight Rules
VFR
Cloud Levels
  • Overcast at 6,000' AGL
Temperature
21°C / 70°F
Dewpoint
16°C / 61°F
Humidity
73%
Altimeter
29.98" Hg
Pressure
1015.22 hPa
Previous

53 mins ago

KCQW 310835Z AUTO 01007KT 10SM BKN065 OVC110 22/16 A2998 RMK AO2
Observed
May-31 @ 08:35 UTC
Wind
  • 010° at 7 KTS
Visibility
Flight Rules
VFR
Cloud Levels
  • Broken at 6,500' AGL
  • Overcast at 11,000' AGL
Temperature
22°C / 72°F
Dewpoint
16°C / 61°F
Humidity
69%
Altimeter
29.98" Hg
Pressure
1015.22 hPa